sensor_id;sensor_type;location;lat;lon;timestamp;P1;durP1;ratioP1;P2;durP2;ratioP2
9276;SDS011;4676;42.678;23.244;2023-11-21T00:01:13;2.33;;;2.17;;
9276;SDS011;4676;42.678;23.244;2023-11-21T00:03:40;5.13;;;3.37;;
9276;SDS011;4676;42.678;23.244;2023-11-21T00:06:06;3.50;;;2.07;;
9276;SDS011;4676;42.678;23.244;2023-11-21T00:08:34;1.37;;;1.37;;
9276;SDS011;4676;42.678;23.244;2023-11-21T00:11:01;2.00;;;1.90;;
9276;SDS011;4676;42.678;23.244;2023-11-21T00:13:28;4.10;;;2.03;;
9276;SDS011;4676;42.678;23.244;2023-11-21T00:15:55;3.73;;;3.53;;
9276;SDS011;4676;42.678;23.244;2023-11-21T00:18:23;5.33;;;2.80;;
9276;SDS011;4676;42.678;23.244;2023-11-21T00:20:50;4.80;;;2.70;;
9276;SDS011;4676;42.678;23.244;2023-11-21T00:23:17;4.20;;;1.93;;
9276;SDS011;4676;42.678;23.244;2023-11-21T00:25:43;7.53;;;3.30;;
9276;SDS011;4676;42.678;23.244;2023-11-21T00:28:10;4.87;;;3.63;;
9276;SDS011;4676;42.678;23.244;2023-11-21T00:30:37;4.13;;;3.83;;
9276;SDS011;4676;42.678;23.244;2023-11-21T00:33:03;8.30;;;3.13;;
9276;SDS011;4676;42.678;23.244;2023-11-21T00:35:31;3.77;;;3.10;;
9276;SDS011;4676;42.678;23.244;2023-11-21T00:37:58;9.20;;;3.47;;
9276;SDS011;4676;42.678;23.244;2023-11-21T00:40:25;3.40;;;1.63;;
9276;SDS011;4676;42.678;23.244;2023-11-21T00:42:51;1.80;;;1.80;;
9276;SDS011;4676;42.678;23.244;2023-11-21T00:45:18;2.23;;;2.13;;
9276;SDS011;4676;42.678;23.244;2023-11-21T00:47:45;4.43;;;2.33;;
9276;SDS011;4676;42.678;23.244;2023-11-21T00:50:12;2.73;;;2.33;;
9276;SDS011;4676;42.678;23.244;2023-11-21T00:52:40;2.00;;;1.00;;
9276;SDS011;4676;42.678;23.244;2023-11-21T00:55:07;5.83;;;2.10;;
9276;SDS011;4676;42.678;23.244;2023-11-21T00:57:35;4.33;;;2.33;;
9276;SDS011;4676;42.678;23.244;2023-11-21T01:00:02;1.80;;;1.80;;
9276;SDS011;4676;42.678;23.244;2023-11-21T01:02:36;0.87;;;0.87;;
9276;SDS011;4676;42.678;23.244;2023-11-21T01:05:03;3.40;;;1.93;;
9276;SDS011;4676;42.678;23.244;2023-11-21T01:07:32;1.80;;;1.63;;
9276;SDS011;4676;42.678;23.244;2023-11-21T01:10:00;3.70;;;2.80;;
9276;SDS011;4676;42.678;23.244;2023-11-21T01:12:27;2.00;;;1.90;;
9276;SDS011;4676;42.678;23.244;2023-11-21T01:14:54;3.67;;;2.80;;
9276;SDS011;4676;42.678;23.244;2023-11-21T01:17:20;4.67;;;2.63;;
9276;SDS011;4676;42.678;23.244;2023-11-21T01:19:48;12.57;;;2.10;;
9276;SDS011;4676;42.678;23.244;2023-11-21T01:22:15;1.30;;;1.30;;
9276;SDS011;4676;42.678;23.244;2023-11-21T01:24:43;2.40;;;1.70;;
9276;SDS011;4676;42.678;23.244;2023-11-21T01:27:11;19.63;;;4.20;;
9276;SDS011;4676;42.678;23.244;2023-11-21T01:29:37;0.97;;;0.97;;
9276;SDS011;4676;42.678;23.244;2023-11-21T01:32:05;2.47;;;2.30;;
9276;SDS011;4676;42.678;23.244;2023-11-21T01:34:33;2.23;;;1.97;;
9276;SDS011;4676;42.678;23.244;2023-11-21T01:36:59;3.43;;;2.07;;
9276;SDS011;4676;42.678;23.244;2023-11-21T01:39:27;4.37;;;3.03;;
9276;SDS011;4676;42.678;23.244;2023-11-21T01:41:54;7.67;;;3.90;;
9276;SDS011;4676;42.678;23.244;2023-11-21T01:44:22;2.00;;;1.37;;
9276;SDS011;4676;42.678;23.244;2023-11-21T01:46:49;2.00;;;1.97;;
9276;SDS011;4676;42.678;23.244;2023-11-21T01:49:17;1.53;;;1.53;;
9276;SDS011;4676;42.678;23.244;2023-11-21T01:51:46;2.40;;;1.77;;
9276;SDS011;4676;42.678;23.244;2023-11-21T01:54:15;2.37;;;2.17;;
9276;SDS011;4676;42.678;23.244;2023-11-21T01:56:43;19.83;;;2.63;;
9276;SDS011;4676;42.678;23.244;2023-11-21T01:59:12;2.77;;;1.43;;
9276;SDS011;4676;42.678;23.244;2023-11-21T02:01:44;2.80;;;2.47;;
9276;SDS011;4676;42.678;23.244;2023-11-21T02:04:12;3.80;;;1.60;;
9276;SDS011;4676;42.678;23.244;2023-11-21T02:06:38;3.97;;;1.90;;
9276;SDS011;4676;42.678;23.244;2023-11-21T02:09:05;2.70;;;2.50;;
9276;SDS011;4676;42.678;23.244;2023-11-21T02:11:34;2.77;;;2.63;;
9276;SDS011;4676;42.678;23.244;2023-11-21T02:14:04;4.57;;;2.50;;
9276;SDS011;4676;42.678;23.244;2023-11-21T02:16:32;2.90;;;1.83;;
9276;SDS011;4676;42.678;23.244;2023-11-21T02:19:00;2.97;;;2.77;;
9276;SDS011;4676;42.678;23.244;2023-11-21T02:21:30;3.63;;;2.10;;
9276;SDS011;4676;42.678;23.244;2023-11-21T02:23:58;3.07;;;2.70;;
9276;SDS011;4676;42.678;23.244;2023-11-21T02:26:25;1.03;;;1.03;;
9276;SDS011;4676;42.678;23.244;2023-11-21T02:28:52;3.80;;;1.60;;
9276;SDS011;4676;42.678;23.244;2023-11-21T02:31:19;3.97;;;1.80;;
9276;SDS011;4676;42.678;23.244;2023-11-21T02:33:46;2.77;;;2.57;;
9276;SDS011;4676;42.678;23.244;2023-11-21T02:36:12;5.67;;;2.60;;
9276;SDS011;4676;42.678;23.244;2023-11-21T02:38:39;2.07;;;2.07;;
9276;SDS011;4676;42.678;23.244;2023-11-21T02:41:07;2.97;;;2.13;;
9276;SDS011;4676;42.678;23.244;2023-11-21T02:43:34;6.23;;;3.20;;
9276;SDS011;4676;42.678;23.244;2023-11-21T02:46:00;2.63;;;2.50;;
9276;SDS011;4676;42.678;23.244;2023-11-21T02:48:27;4.07;;;2.80;;
9276;SDS011;4676;42.678;23.244;2023-11-21T02:50:55;2.77;;;1.90;;
9276;SDS011;4676;42.678;23.244;2023-11-21T02:53:22;1.80;;;1.70;;
9276;SDS011;4676;42.678;23.244;2023-11-21T02:55:49;5.07;;;2.50;;
9276;SDS011;4676;42.678;23.244;2023-11-21T02:58:18;3.43;;;3.13;;
9276;SDS011;4676;42.678;23.244;2023-11-21T03:00:45;1.50;;;1.50;;
9276;SDS011;4676;42.678;23.244;2023-11-21T03:03:11;2.43;;;2.03;;
9276;SDS011;4676;42.678;23.244;2023-11-21T03:05:39;1.90;;;1.30;;
9276;SDS011;4676;42.678;23.244;2023-11-21T03:08:06;24.37;;;2.63;;
9276;SDS011;4676;42.678;23.244;2023-11-21T03:10:33;1.63;;;1.40;;
9276;SDS011;4676;42.678;23.244;2023-11-21T03:12:59;2.47;;;2.37;;
9276;SDS011;4676;42.678;23.244;2023-11-21T03:15:30;1.90;;;1.80;;
9276;SDS011;4676;42.678;23.244;2023-11-21T03:17:58;2.17;;;1.97;;
9276;SDS011;4676;42.678;23.244;2023-11-21T03:20:24;3.20;;;2.00;;
9276;SDS011;4676;42.678;23.244;2023-11-21T03:22:51;1.73;;;1.63;;
9276;SDS011;4676;42.678;23.244;2023-11-21T03:25:18;2.20;;;1.90;;
9276;SDS011;4676;42.678;23.244;2023-11-21T03:27:45;2.47;;;1.70;;
9276;SDS011;4676;42.678;23.244;2023-11-21T03:30:11;2.63;;;2.43;;
9276;SDS011;4676;42.678;23.244;2023-11-21T03:32:39;3.47;;;2.27;;
9276;SDS011;4676;42.678;23.244;2023-11-21T03:35:07;1.80;;;1.77;;
9276;SDS011;4676;42.678;23.244;2023-11-21T03:37:34;1.30;;;1.30;;
9276;SDS011;4676;42.678;23.244;2023-11-21T03:40:00;3.30;;;2.70;;
9276;SDS011;4676;42.678;23.244;2023-11-21T03:42:29;2.00;;;1.90;;
9276;SDS011;4676;42.678;23.244;2023-11-21T03:44:55;1.33;;;1.33;;
9276;SDS011;4676;42.678;23.244;2023-11-21T03:47:22;4.17;;;1.83;;
9276;SDS011;4676;42.678;23.244;2023-11-21T03:49:50;1.07;;;1.07;;
9276;SDS011;4676;42.678;23.244;2023-11-21T03:52:17;2.00;;;1.87;;
9276;SDS011;4676;42.678;23.244;2023-11-21T03:54:44;4.00;;;3.07;;
9276;SDS011;4676;42.678;23.244;2023-11-21T03:57:11;1.20;;;1.20;;
9276;SDS011;4676;42.678;23.244;2023-11-21T03:59:39;2.70;;;2.17;;
9276;SDS011;4676;42.678;23.244;2023-11-21T04:02:06;2.30;;;2.03;;
9276;SDS011;4676;42.678;23.244;2023-11-21T04:04:33;2.20;;;2.10;;
9276;SDS011;4676;42.678;23.244;2023-11-21T04:07:01;2.80;;;2.60;;
9276;SDS011;4676;42.678;23.244;2023-11-21T04:09:28;2.80;;;1.93;;
9276;SDS011;4676;42.678;23.244;2023-11-21T04:11:54;1.57;;;1.57;;
9276;SDS011;4676;42.678;23.244;2023-11-21T04:14:21;2.63;;;2.30;;
9276;SDS011;4676;42.678;23.244;2023-11-21T04:19:13;0.85;;;0.85;;
9276;SDS011;4676;42.678;23.244;2023-11-21T04:21:40;1.60;;;1.20;;
9276;SDS011;4676;42.678;23.244;2023-11-21T04:24:09;1.43;;;1.43;;
9276;SDS011;4676;42.678;23.244;2023-11-21T04:26:35;1.80;;;1.70;;
9276;SDS011;4676;42.678;23.244;2023-11-21T04:29:02;3.00;;;2.47;;
9276;SDS011;4676;42.678;23.244;2023-11-21T04:31:31;1.77;;;1.77;;
9276;SDS011;4676;42.678;23.244;2023-11-21T04:33:58;2.43;;;2.30;;
9276;SDS011;4676;42.678;23.244;2023-11-21T04:36:24;5.70;;;5.20;;
9276;SDS011;4676;42.678;23.244;2023-11-21T04:38:51;2.63;;;2.43;;
9276;SDS011;4676;42.678;23.244;2023-11-21T04:41:19;1.27;;;1.27;;
9276;SDS011;4676;42.678;23.244;2023-11-21T04:43:46;5.10;;;2.37;;
9276;SDS011;4676;42.678;23.244;2023-11-21T04:46:13;3.67;;;3.47;;
9276;SDS011;4676;42.678;23.244;2023-11-21T04:48:39;3.43;;;3.17;;
9276;SDS011;4676;42.678;23.244;2023-11-21T04:51:06;5.47;;;4.83;;
9276;SDS011;4676;42.678;23.244;2023-11-21T04:53:33;2.63;;;2.43;;
9276;SDS011;4676;42.678;23.244;2023-11-21T04:56:00;3.23;;;2.23;;
9276;SDS011;4676;42.678;23.244;2023-11-21T04:58:28;5.27;;;3.63;;
9276;SDS011;4676;42.678;23.244;2023-11-21T05:00:55;2.47;;;2.17;;
9276;SDS011;4676;42.678;23.244;2023-11-21T05:03:22;1.60;;;1.53;;
9276;SDS011;4676;42.678;23.244;2023-11-21T05:05:49;2.07;;;1.90;;
9276;SDS011;4676;42.678;23.244;2023-11-21T05:08:15;2.17;;;2.17;;
9276;SDS011;4676;42.678;23.244;2023-11-21T05:10:42;2.33;;;2.33;;
9276;SDS011;4676;42.678;23.244;2023-11-21T05:13:09;3.00;;;1.80;;
9276;SDS011;4676;42.678;23.244;2023-11-21T05:15:37;1.80;;;1.80;;
9276;SDS011;4676;42.678;23.244;2023-11-21T05:18:04;2.03;;;1.93;;
9276;SDS011;4676;42.678;23.244;2023-11-21T05:20:31;10.77;;;4.40;;
9276;SDS011;4676;42.678;23.244;2023-11-21T05:22:58;3.40;;;3.13;;
9276;SDS011;4676;42.678;23.244;2023-11-21T05:25:25;3.40;;;2.87;;
9276;SDS011;4676;42.678;23.244;2023-11-21T05:27:51;2.03;;;1.57;;
9276;SDS011;4676;42.678;23.244;2023-11-21T05:30:21;4.80;;;2.57;;
9276;SDS011;4676;42.678;23.244;2023-11-21T05:32:49;4.27;;;2.27;;
9276;SDS011;4676;42.678;23.244;2023-11-21T05:35:16;3.53;;;3.23;;
9276;SDS011;4676;42.678;23.244;2023-11-21T05:37:43;5.17;;;4.33;;
9276;SDS011;4676;42.678;23.244;2023-11-21T05:40:10;4.33;;;3.93;;
9276;SDS011;4676;42.678;23.244;2023-11-21T05:42:38;2.50;;;1.70;;
9276;SDS011;4676;42.678;23.244;2023-11-21T05:45:05;4.67;;;4.27;;
9276;SDS011;4676;42.678;23.244;2023-11-21T05:47:36;5.57;;;4.53;;
9276;SDS011;4676;42.678;23.244;2023-11-21T05:50:06;2.87;;;2.33;;
9276;SDS011;4676;42.678;23.244;2023-11-21T05:52:35;2.80;;;2.67;;
9276;SDS011;4676;42.678;23.244;2023-11-21T05:55:02;2.67;;;2.47;;
9276;SDS011;4676;42.678;23.244;2023-11-21T05:57:30;3.57;;;2.63;;
9276;SDS011;4676;42.678;23.244;2023-11-21T05:59:57;2.87;;;2.77;;
9276;SDS011;4676;42.678;23.244;2023-11-21T06:02:24;2.20;;;2.10;;
9276;SDS011;4676;42.678;23.244;2023-11-21T06:04:51;3.43;;;2.57;;
9276;SDS011;4676;42.678;23.244;2023-11-21T06:07:19;4.23;;;2.33;;
9276;SDS011;4676;42.678;23.244;2023-11-21T06:09:46;2.40;;;2.13;;
9276;SDS011;4676;42.678;23.244;2023-11-21T06:12:15;2.53;;;2.10;;
9276;SDS011;4676;42.678;23.244;2023-11-21T06:14:42;3.63;;;3.40;;
9276;SDS011;4676;42.678;23.244;2023-11-21T06:17:08;3.10;;;2.80;;
9276;SDS011;4676;42.678;23.244;2023-11-21T06:19:36;4.97;;;3.30;;
9276;SDS011;4676;42.678;23.244;2023-11-21T06:22:03;2.90;;;2.73;;
9276;SDS011;4676;42.678;23.244;2023-11-21T06:24:31;2.87;;;2.60;;
9276;SDS011;4676;42.678;23.244;2023-11-21T06:26:58;9.87;;;4.77;;
9276;SDS011;4676;42.678;23.244;2023-11-21T06:29:24;18.37;;;4.33;;
9276;SDS011;4676;42.678;23.244;2023-11-21T06:31:51;4.67;;;4.20;;
9276;SDS011;4676;42.678;23.244;2023-11-21T06:34:20;4.37;;;2.93;;
9276;SDS011;4676;42.678;23.244;2023-11-21T06:36:46;6.90;;;3.87;;
9276;SDS011;4676;42.678;23.244;2023-11-21T06:39:13;3.63;;;3.23;;
9276;SDS011;4676;42.678;23.244;2023-11-21T06:41:43;19.23;;;5.93;;
9276;SDS011;4676;42.678;23.244;2023-11-21T06:44:09;2.30;;;2.30;;
9276;SDS011;4676;42.678;23.244;2023-11-21T06:46:36;8.90;;;4.00;;
9276;SDS011;4676;42.678;23.244;2023-11-21T06:49:07;4.77;;;4.17;;
9276;SDS011;4676;42.678;23.244;2023-11-21T06:51:34;8.60;;;3.10;;
9276;SDS011;4676;42.678;23.244;2023-11-21T06:54:00;5.40;;;2.80;;
9276;SDS011;4676;42.678;23.244;2023-11-21T06:56:27;3.47;;;3.20;;
9276;SDS011;4676;42.678;23.244;2023-11-21T06:58:55;2.17;;;2.07;;
9276;SDS011;4676;42.678;23.244;2023-11-21T07:01:22;10.57;;;3.73;;
9276;SDS011;4676;42.678;23.244;2023-11-21T07:03:49;2.23;;;2.10;;
9276;SDS011;4676;42.678;23.244;2023-11-21T07:06:16;1.17;;;1.17;;
9276;SDS011;4676;42.678;23.244;2023-11-21T07:08:43;4.33;;;3.10;;
9276;SDS011;4676;42.678;23.244;2023-11-21T07:11:17;3.30;;;2.43;;
9276;SDS011;4676;42.678;23.244;2023-11-21T07:13:44;2.17;;;2.17;;
9276;SDS011;4676;42.678;23.244;2023-11-21T07:16:12;4.90;;;4.47;;
9276;SDS011;4676;42.678;23.244;2023-11-21T07:18:40;2.50;;;2.20;;
9276;SDS011;4676;42.678;23.244;2023-11-21T07:21:06;8.80;;;1.87;;
9276;SDS011;4676;42.678;23.244;2023-11-21T07:23:34;5.07;;;3.10;;
9276;SDS011;4676;42.678;23.244;2023-11-21T07:26:01;6.93;;;4.27;;
9276;SDS011;4676;42.678;23.244;2023-11-21T07:28:28;2.80;;;2.70;;
9276;SDS011;4676;42.678;23.244;2023-11-21T07:30:56;5.10;;;2.70;;
9276;SDS011;4676;42.678;23.244;2023-11-21T07:33:24;4.73;;;3.27;;
9276;SDS011;4676;42.678;23.244;2023-11-21T07:35:51;3.30;;;3.00;;
9276;SDS011;4676;42.678;23.244;2023-11-21T07:38:18;5.97;;;3.20;;
9276;SDS011;4676;42.678;23.244;2023-11-21T07:40:44;1.87;;;1.83;;
9276;SDS011;4676;42.678;23.244;2023-11-21T07:43:11;3.20;;;2.93;;
9276;SDS011;4676;42.678;23.244;2023-11-21T07:45:38;4.83;;;3.03;;
9276;SDS011;4676;42.678;23.244;2023-11-21T07:48:05;2.83;;;2.17;;
9276;SDS011;4676;42.678;23.244;2023-11-21T07:50:33;6.10;;;4.30;;
9276;SDS011;4676;42.678;23.244;2023-11-21T07:53:00;4.33;;;3.30;;
9276;SDS011;4676;42.678;23.244;2023-11-21T07:55:27;3.13;;;3.00;;
9276;SDS011;4676;42.678;23.244;2023-11-21T07:57:57;2.10;;;2.10;;
9276;SDS011;4676;42.678;23.244;2023-11-21T08:00:24;19.33;;;5.60;;
9276;SDS011;4676;42.678;23.244;2023-11-21T08:02:55;3.33;;;2.30;;
9276;SDS011;4676;42.678;23.244;2023-11-21T08:05:21;3.80;;;3.60;;
9276;SDS011;4676;42.678;23.244;2023-11-21T08:07:49;4.90;;;2.90;;
9276;SDS011;4676;42.678;23.244;2023-11-21T08:10:16;3.57;;;3.37;;
9276;SDS011;4676;42.678;23.244;2023-11-21T08:12:43;8.57;;;4.50;;
9276;SDS011;4676;42.678;23.244;2023-11-21T08:15:10;7.43;;;4.47;;
9276;SDS011;4676;42.678;23.244;2023-11-21T08:17:37;6.17;;;3.70;;
9276;SDS011;4676;42.678;23.244;2023-11-21T08:20:04;4.20;;;3.90;;
9276;SDS011;4676;42.678;23.244;2023-11-21T08:22:33;11.57;;;5.07;;
9276;SDS011;4676;42.678;23.244;2023-11-21T08:25:02;3.50;;;2.83;;
9276;SDS011;4676;42.678;23.244;2023-11-21T08:27:30;4.23;;;3.47;;
9276;SDS011;4676;42.678;23.244;2023-11-21T08:29:56;7.33;;;4.10;;
9276;SDS011;4676;42.678;23.244;2023-11-21T08:32:23;6.57;;;3.70;;
9276;SDS011;4676;42.678;23.244;2023-11-21T08:34:50;4.80;;;4.33;;
9276;SDS011;4676;42.678;23.244;2023-11-21T08:37:17;5.53;;;3.90;;
9276;SDS011;4676;42.678;23.244;2023-11-21T08:39:43;3.20;;;3.03;;
9276;SDS011;4676;42.678;23.244;2023-11-21T08:42:11;4.47;;;4.00;;
9276;SDS011;4676;42.678;23.244;2023-11-21T08:44:38;5.33;;;3.77;;
9276;SDS011;4676;42.678;23.244;2023-11-21T08:47:05;5.57;;;3.57;;
9276;SDS011;4676;42.678;23.244;2023-11-21T08:49:31;10.03;;;4.10;;
9276;SDS011;4676;42.678;23.244;2023-11-21T08:51:58;3.43;;;3.20;;
9276;SDS011;4676;42.678;23.244;2023-11-21T08:54:25;4.03;;;3.93;;
9276;SDS011;4676;42.678;23.244;2023-11-21T08:56:52;7.20;;;5.00;;
9276;SDS011;4676;42.678;23.244;2023-11-21T08:59:21;3.80;;;3.57;;
9276;SDS011;4676;42.678;23.244;2023-11-21T09:01:47;4.37;;;3.10;;
9276;SDS011;4676;42.678;23.244;2023-11-21T09:04:14;7.30;;;4.37;;
9276;SDS011;4676;42.678;23.244;2023-11-21T09:06:41;7.53;;;4.40;;
9276;SDS011;4676;42.678;23.244;2023-11-21T09:09:07;6.20;;;4.97;;
9276;SDS011;4676;42.678;23.244;2023-11-21T09:11:35;7.93;;;3.57;;
9276;SDS011;4676;42.678;23.244;2023-11-21T09:14:02;5.77;;;5.27;;
9276;SDS011;4676;42.678;23.244;2023-11-21T09:16:30;7.93;;;4.63;;
9276;SDS011;4676;42.678;23.244;2023-11-21T09:18:57;9.87;;;5.40;;
9276;SDS011;4676;42.678;23.244;2023-11-21T09:21:24;5.40;;;4.93;;
9276;SDS011;4676;42.678;23.244;2023-11-21T09:23:51;7.80;;;4.40;;
9276;SDS011;4676;42.678;23.244;2023-11-21T09:26:17;6.03;;;4.80;;
9276;SDS011;4676;42.678;23.244;2023-11-21T09:28:44;6.07;;;5.20;;
9276;SDS011;4676;42.678;23.244;2023-11-21T09:31:13;9.87;;;5.40;;
9276;SDS011;4676;42.678;23.244;2023-11-21T09:33:42;5.10;;;4.03;;
9276;SDS011;4676;42.678;23.244;2023-11-21T09:36:11;3.83;;;3.63;;
9276;SDS011;4676;42.678;23.244;2023-11-21T09:38:39;6.17;;;5.53;;
9276;SDS011;4676;42.678;23.244;2023-11-21T09:41:07;12.63;;;5.43;;
9276;SDS011;4676;42.678;23.244;2023-11-21T09:43:42;8.40;;;5.83;;
9276;SDS011;4676;42.678;23.244;2023-11-21T09:46:12;2.93;;;2.83;;
9276;SDS011;4676;42.678;23.244;2023-11-21T09:48:46;6.83;;;4.63;;
9276;SDS011;4676;42.678;23.244;2023-11-21T09:51:17;6.20;;;4.47;;
9276;SDS011;4676;42.678;23.244;2023-11-21T09:53:48;6.93;;;4.43;;
9276;SDS011;4676;42.678;23.244;2023-11-21T09:56:18;11.63;;;5.00;;
9276;SDS011;4676;42.678;23.244;2023-11-21T09:58:50;5.80;;;3.90;;
9276;SDS011;4676;42.678;23.244;2023-11-21T10:01:18;10.77;;;5.13;;
9276;SDS011;4676;42.678;23.244;2023-11-21T10:03:48;12.90;;;6.07;;
9276;SDS011;4676;42.678;23.244;2023-11-21T10:06:15;5.40;;;4.90;;
9276;SDS011;4676;42.678;23.244;2023-11-21T10:08:44;10.90;;;5.07;;
9276;SDS011;4676;42.678;23.244;2023-11-21T10:11:12;5.27;;;3.17;;
9276;SDS011;4676;42.678;23.244;2023-11-21T10:13:41;9.07;;;4.80;;
9276;SDS011;4676;42.678;23.244;2023-11-21T10:16:10;7.03;;;4.40;;
9276;SDS011;4676;42.678;23.244;2023-11-21T10:18:47;5.40;;;3.27;;
9276;SDS011;4676;42.678;23.244;2023-11-21T10:21:19;10.03;;;4.77;;
9276;SDS011;4676;42.678;23.244;2023-11-21T10:23:46;23.53;;;2.97;;
9276;SDS011;4676;42.678;23.244;2023-11-21T10:26:14;9.20;;;3.43;;
9276;SDS011;4676;42.678;23.244;2023-11-21T10:28:41;12.20;;;4.57;;
9276;SDS011;4676;42.678;23.244;2023-11-21T10:31:20;11.70;;;5.43;;
9276;SDS011;4676;42.678;23.244;2023-11-21T10:33:50;9.17;;;4.63;;
9276;SDS011;4676;42.678;23.244;2023-11-21T10:36:24;3.97;;;3.77;;
9276;SDS011;4676;42.678;23.244;2023-11-21T10:38:52;10.13;;;5.20;;
9276;SDS011;4676;42.678;23.244;2023-11-21T10:41:19;9.83;;;5.00;;
9276;SDS011;4676;42.678;23.244;2023-11-21T10:43:46;4.43;;;4.00;;
9276;SDS011;4676;42.678;23.244;2023-11-21T10:46:12;5.97;;;5.40;;
9276;SDS011;4676;42.678;23.244;2023-11-21T10:48:40;8.40;;;5.27;;
9276;SDS011;4676;42.678;23.244;2023-11-21T10:51:09;6.40;;;4.63;;
9276;SDS011;4676;42.678;23.244;2023-11-21T10:53:39;6.27;;;5.17;;
9276;SDS011;4676;42.678;23.244;2023-11-21T10:56:08;17.63;;;5.83;;
9276;SDS011;4676;42.678;23.244;2023-11-21T10:58:38;10.90;;;6.43;;
9276;SDS011;4676;42.678;23.244;2023-11-21T11:01:06;4.63;;;4.37;;
9276;SDS011;4676;42.678;23.244;2023-11-21T11:03:36;12.17;;;7.30;;
9276;SDS011;4676;42.678;23.244;2023-11-21T11:06:04;16.47;;;7.60;;
9276;SDS011;4676;42.678;23.244;2023-11-21T11:08:37;17.73;;;9.33;;
9276;SDS011;4676;42.678;23.244;2023-11-21T11:11:06;9.40;;;8.00;;
9276;SDS011;4676;42.678;23.244;2023-11-21T11:13:34;12.33;;;7.40;;
9276;SDS011;4676;42.678;23.244;2023-11-21T11:16:02;12.80;;;9.13;;
9276;SDS011;4676;42.678;23.244;2023-11-21T11:18:32;10.80;;;9.57;;
9276;SDS011;4676;42.678;23.244;2023-11-21T11:21:00;17.70;;;7.97;;
9276;SDS011;4676;42.678;23.244;2023-11-21T11:23:49;11.10;;;7.20;;
9276;SDS011;4676;42.678;23.244;2023-11-21T11:26:31;11.57;;;7.13;;
9276;SDS011;4676;42.678;23.244;2023-11-21T11:29:08;8.10;;;7.20;;
9276;SDS011;4676;42.678;23.244;2023-11-21T11:31:42;9.63;;;7.03;;
9276;SDS011;4676;42.678;23.244;2023-11-21T11:34:23;11.73;;;7.43;;
9276;SDS011;4676;42.678;23.244;2023-11-21T11:36:58;6.53;;;5.97;;
9276;SDS011;4676;42.678;23.244;2023-11-21T11:39:30;16.93;;;9.10;;
9276;SDS011;4676;42.678;23.244;2023-11-21T11:42:02;8.33;;;6.73;;
9276;SDS011;4676;42.678;23.244;2023-11-21T11:44:46;11.87;;;7.23;;
9276;SDS011;4676;42.678;23.244;2023-11-21T11:47:20;9.13;;;6.77;;
9276;SDS011;4676;42.678;23.244;2023-11-21T11:49:55;18.73;;;8.50;;
9276;SDS011;4676;42.678;23.244;2023-11-21T11:52:32;16.57;;;8.07;;
9276;SDS011;4676;42.678;23.244;2023-11-21T11:55:01;10.37;;;8.33;;
9276;SDS011;4676;42.678;23.244;2023-11-21T11:57:29;12.37;;;8.50;;
9276;SDS011;4676;42.678;23.244;2023-11-21T12:00:13;11.33;;;7.77;;
9276;SDS011;4676;42.678;23.244;2023-11-21T12:02:45;11.00;;;7.70;;
9276;SDS011;4676;42.678;23.244;2023-11-21T12:05:13;8.23;;;5.80;;
9276;SDS011;4676;42.678;23.244;2023-11-21T12:07:43;28.30;;;6.60;;
9276;SDS011;4676;42.678;23.244;2023-11-21T12:10:14;8.23;;;7.57;;
9276;SDS011;4676;42.678;23.244;2023-11-21T12:12:43;8.03;;;7.00;;
9276;SDS011;4676;42.678;23.244;2023-11-21T12:15:11;9.00;;;7.53;;
9276;SDS011;4676;42.678;23.244;2023-11-21T12:17:39;11.13;;;7.00;;
9276;SDS011;4676;42.678;23.244;2023-11-21T12:20:09;13.47;;;9.00;;
9276;SDS011;4676;42.678;23.244;2023-11-21T12:22:43;6.93;;;6.00;;
9276;SDS011;4676;42.678;23.244;2023-11-21T12:25:14;10.23;;;5.73;;
9276;SDS011;4676;42.678;23.244;2023-11-21T12:27:44;8.17;;;7.00;;
9276;SDS011;4676;42.678;23.244;2023-11-21T12:30:12;8.00;;;7.10;;
9276;SDS011;4676;42.678;23.244;2023-11-21T12:32:40;7.07;;;6.50;;
9276;SDS011;4676;42.678;23.244;2023-11-21T12:35:08;6.07;;;5.53;;
9276;SDS011;4676;42.678;23.244;2023-11-21T12:37:36;10.97;;;6.17;;
9276;SDS011;4676;42.678;23.244;2023-11-21T12:40:04;8.07;;;5.17;;
9276;SDS011;4676;42.678;23.244;2023-11-21T12:42:34;6.23;;;5.17;;
9276;SDS011;4676;42.678;23.244;2023-11-21T12:45:08;6.07;;;5.57;;
9276;SDS011;4676;42.678;23.244;2023-11-21T12:47:39;7.00;;;6.20;;
9276;SDS011;4676;42.678;23.244;2023-11-21T12:50:07;6.50;;;5.40;;
9276;SDS011;4676;42.678;23.244;2023-11-21T12:52:39;12.40;;;6.77;;
9276;SDS011;4676;42.678;23.244;2023-11-21T12:55:09;6.60;;;6.07;;
9276;SDS011;4676;42.678;23.244;2023-11-21T12:57:42;11.57;;;5.60;;
9276;SDS011;4676;42.678;23.244;2023-11-21T13:00:10;5.57;;;4.17;;
9276;SDS011;4676;42.678;23.244;2023-11-21T13:02:49;4.67;;;4.27;;
9276;SDS011;4676;42.678;23.244;2023-11-21T13:05:23;6.77;;;4.43;;
9276;SDS011;4676;42.678;23.244;2023-11-21T13:07:51;14.87;;;4.37;;
9276;SDS011;4676;42.678;23.244;2023-11-21T13:10:19;5.17;;;3.83;;
9276;SDS011;4676;42.678;23.244;2023-11-21T13:12:52;7.60;;;4.77;;
9276;SDS011;4676;42.678;23.244;2023-11-21T13:15:20;11.37;;;6.17;;
9276;SDS011;4676;42.678;23.244;2023-11-21T13:17:46;6.97;;;5.60;;
9276;SDS011;4676;42.678;23.244;2023-11-21T13:20:15;5.50;;;4.97;;
9276;SDS011;4676;42.678;23.244;2023-11-21T13:22:46;7.90;;;5.73;;
9276;SDS011;4676;42.678;23.244;2023-11-21T13:25:14;7.20;;;5.93;;
9276;SDS011;4676;42.678;23.244;2023-11-21T13:27:43;6.77;;;5.20;;
9276;SDS011;4676;42.678;23.244;2023-11-21T13:30:12;6.23;;;5.67;;
9276;SDS011;4676;42.678;23.244;2023-11-21T13:32:42;22.80;;;7.17;;
9276;SDS011;4676;42.678;23.244;2023-11-21T13:35:10;7.90;;;5.60;;
9276;SDS011;4676;42.678;23.244;2023-11-21T13:37:46;8.93;;;6.53;;
9276;SDS011;4676;42.678;23.244;2023-11-21T13:40:19;11.63;;;5.73;;
9276;SDS011;4676;42.678;23.244;2023-11-21T13:42:51;8.17;;;4.70;;
9276;SDS011;4676;42.678;23.244;2023-11-21T13:45:22;5.20;;;4.80;;
9276;SDS011;4676;42.678;23.244;2023-11-21T13:47:50;6.47;;;5.67;;
9276;SDS011;4676;42.678;23.244;2023-11-21T13:50:22;22.77;;;5.67;;
9276;SDS011;4676;42.678;23.244;2023-11-21T13:52:49;21.70;;;5.87;;
9276;SDS011;4676;42.678;23.244;2023-11-21T13:55:18;18.20;;;6.27;;
9276;SDS011;4676;42.678;23.244;2023-11-21T13:57:45;8.73;;;6.10;;
9276;SDS011;4676;42.678;23.244;2023-11-21T14:00:15;5.93;;;5.23;;
9276;SDS011;4676;42.678;23.244;2023-11-21T14:02:58;6.67;;;5.73;;
9276;SDS011;4676;42.678;23.244;2023-11-21T14:05:26;6.00;;;5.20;;
9276;SDS011;4676;42.678;23.244;2023-11-21T14:07:54;9.20;;;6.33;;
9276;SDS011;4676;42.678;23.244;2023-11-21T14:10:27;5.70;;;5.23;;
9276;SDS011;4676;42.678;23.244;2023-11-21T14:13:02;9.83;;;7.30;;
9276;SDS011;4676;42.678;23.244;2023-11-21T14:15:29;8.87;;;6.73;;
9276;SDS011;4676;42.678;23.244;2023-11-21T14:17:59;8.07;;;7.07;;
9276;SDS011;4676;42.678;23.244;2023-11-21T14:20:27;8.70;;;6.10;;
9276;SDS011;4676;42.678;23.244;2023-11-21T14:22:55;17.13;;;7.80;;
9276;SDS011;4676;42.678;23.244;2023-11-21T14:25:22;17.00;;;8.37;;
9276;SDS011;4676;42.678;23.244;2023-11-21T14:27:49;19.73;;;9.23;;
9276;SDS011;4676;42.678;23.244;2023-11-21T14:30:15;12.27;;;8.27;;
9276;SDS011;4676;42.678;23.244;2023-11-21T14:32:44;10.53;;;8.10;;
9276;SDS011;4676;42.678;23.244;2023-11-21T14:35:13;16.97;;;8.77;;
9276;SDS011;4676;42.678;23.244;2023-11-21T14:37:39;19.50;;;9.27;;
9276;SDS011;4676;42.678;23.244;2023-11-21T14:40:06;14.00;;;9.73;;
9276;SDS011;4676;42.678;23.244;2023-11-21T14:42:34;16.17;;;10.00;;
9276;SDS011;4676;42.678;23.244;2023-11-21T14:45:04;16.93;;;11.20;;
9276;SDS011;4676;42.678;23.244;2023-11-21T14:47:33;20.60;;;10.43;;
9276;SDS011;4676;42.678;23.244;2023-11-21T14:50:00;12.33;;;9.73;;
9276;SDS011;4676;42.678;23.244;2023-11-21T14:52:47;16.20;;;10.63;;
9276;SDS011;4676;42.678;23.244;2023-11-21T14:55:20;20.30;;;10.73;;
9276;SDS011;4676;42.678;23.244;2023-11-21T14:57:56;20.87;;;10.73;;
9276;SDS011;4676;42.678;23.244;2023-11-21T15:00:23;23.43;;;10.30;;
9276;SDS011;4676;42.678;23.244;2023-11-21T15:03:09;23.17;;;11.50;;
9276;SDS011;4676;42.678;23.244;2023-11-21T15:05:46;15.03;;;9.83;;
9276;SDS011;4676;42.678;23.244;2023-11-21T15:08:15;12.63;;;7.53;;